createdAt,value
2018-12-16T00:00:29.105Z,18.07
2018-12-16T00:02:56.776Z,22.55
2018-12-16T00:05:24.185Z,22.52
2018-12-16T00:07:51.588Z,22.70
2018-12-16T00:10:18.998Z,22.82
2018-12-16T00:12:46.367Z,22.10
2018-12-16T00:16:38.242Z,22.50
2018-12-16T00:19:07.010Z,19.95
2018-12-16T00:21:34.539Z,21.97
2018-12-16T00:24:01.922Z,22.25
2018-12-16T00:27:33.386Z,23.65
2018-12-16T00:30:00.792Z,19.52
2018-12-16T00:32:28.139Z,20.75
2018-12-16T00:34:55.497Z,21.52
2018-12-16T00:37:22.869Z,23.02
2018-12-16T00:39:50.196Z,23.15
2018-12-16T00:42:17.575Z,21.90
2018-12-16T00:44:44.947Z,22.10
2018-12-16T00:47:12.412Z,25.27
2018-12-16T00:49:39.860Z,22.25
2018-12-16T00:52:07.304Z,21.45
2018-12-16T00:54:34.683Z,24.07
2018-12-16T00:57:02.141Z,23.10
2018-12-16T00:59:29.566Z,23.62
2018-12-16T01:01:56.927Z,22.40
2018-12-16T01:04:24.302Z,24.25
2018-12-16T01:06:52.039Z,24.60
2018-12-16T01:09:19.572Z,22.60
2018-12-16T01:11:46.994Z,24.07
2018-12-16T01:14:14.437Z,25.70
2018-12-16T01:16:42.461Z,25.25
2018-12-16T01:19:09.851Z,24.55
2018-12-16T01:21:37.309Z,24.43
2018-12-16T01:24:04.782Z,25.27
2018-12-16T01:26:32.193Z,24.50
2018-12-16T01:30:24.000Z,23.90
2018-12-16T01:32:51.843Z,23.02
2018-12-16T01:35:19.296Z,21.23
2018-12-16T01:37:46.767Z,23.42
2018-12-16T01:40:14.185Z,25.05
2018-12-16T01:42:41.597Z,21.95
2018-12-16T01:45:09.159Z,21.50
2018-12-16T01:47:36.569Z,23.57
2018-12-16T01:50:04.234Z,22.82
2018-12-16T01:52:31.759Z,23.25
2018-12-16T01:54:59.233Z,22.93
2018-12-16T01:57:26.573Z,23.90
2018-12-16T01:59:54.046Z,22.58
2018-12-16T02:02:21.394Z,21.07
2018-12-16T02:04:48.767Z,21.80
2018-12-16T02:07:16.208Z,21.75
2018-12-16T02:09:43.540Z,20.85
2018-12-16T02:12:10.931Z,20.82
2018-12-16T02:14:38.366Z,21.73
2018-12-16T02:17:05.773Z,21.75
2018-12-16T02:19:33.212Z,21.52
2018-12-16T02:22:00.622Z,23.35
2018-12-16T02:24:28.015Z,21.20
2018-12-16T02:26:55.559Z,20.30
2018-12-16T02:29:22.892Z,20.05
2018-12-16T02:31:50.248Z,18.87
2018-12-16T02:34:17.618Z,20.65
2018-12-16T02:36:44.970Z,18.70
2018-12-16T02:39:12.302Z,21.48
2018-12-16T02:41:39.676Z,19.02
2018-12-16T02:44:07.375Z,21.35
2018-12-16T02:46:34.799Z,20.88
2018-12-16T02:49:02.128Z,19.15
2018-12-16T02:51:29.569Z,18.00
2018-12-16T02:53:56.953Z,19.17
2018-12-16T02:56:24.380Z,18.70
2018-12-16T02:58:51.759Z,19.65
2018-12-16T03:01:19.132Z,22.60
2018-12-16T03:03:46.496Z,18.65
2018-12-16T03:06:13.826Z,19.30
2018-12-16T03:08:41.195Z,17.95
2018-12-16T03:11:08.536Z,19.70
2018-12-16T03:13:35.935Z,17.87
2018-12-16T03:16:03.375Z,17.57
2018-12-16T03:18:30.737Z,18.60
2018-12-16T03:20:58.199Z,16.90
2018-12-16T03:23:25.714Z,17.75
2018-12-16T03:25:53.121Z,18.12
2018-12-16T03:28:20.565Z,19.40
2018-12-16T03:30:48.032Z,18.35
2018-12-16T03:33:15.450Z,18.27
2018-12-16T03:35:42.795Z,17.85
2018-12-16T03:38:10.150Z,18.52
2018-12-16T03:40:37.530Z,19.65
2018-12-16T03:43:04.885Z,19.10
2018-12-16T03:45:32.462Z,18.50
2018-12-16T03:47:59.889Z,19.17
2018-12-16T03:50:27.235Z,19.62
2018-12-16T03:52:54.569Z,17.87
2018-12-16T03:55:21.970Z,16.95
2018-12-16T03:57:49.303Z,18.20
2018-12-16T04:00:16.662Z,17.90
2018-12-16T04:02:44.108Z,17.98
2018-12-16T04:05:11.571Z,17.98
2018-12-16T04:07:38.957Z,18.62
2018-12-16T04:10:06.400Z,16.45
2018-12-16T04:12:33.789Z,17.67
2018-12-16T04:15:01.559Z,16.95
2018-12-16T04:17:29.063Z,16.70
2018-12-16T04:19:56.444Z,16.90
2018-12-16T04:22:23.901Z,16.27
2018-12-16T04:24:51.338Z,17.95
2018-12-16T04:27:18.696Z,16.75
2018-12-16T04:29:46.090Z,15.15
2018-12-16T04:32:13.512Z,17.15
2018-12-16T04:34:40.953Z,15.00
2018-12-16T04:37:08.367Z,16.45
2018-12-16T04:39:35.804Z,15.58
2018-12-16T04:42:03.231Z,16.90
2018-12-16T04:44:30.587Z,16.65
2018-12-16T04:46:58.000Z,15.72
2018-12-16T04:49:25.391Z,15.25
2018-12-16T04:51:52.856Z,15.83
2018-12-16T04:54:20.195Z,16.25
2018-12-16T04:56:47.607Z,16.10
2018-12-16T04:59:15.027Z,16.23
2018-12-16T05:01:42.423Z,16.20
2018-12-16T05:04:09.854Z,15.83
2018-12-16T05:06:37.445Z,15.95
2018-12-16T05:09:06.331Z,14.73
2018-12-16T05:11:33.761Z,15.90
2018-12-16T05:14:01.221Z,15.53
2018-12-16T05:16:29.568Z,16.17
2018-12-16T05:18:56.903Z,15.00
2018-12-16T05:21:24.267Z,15.70
2018-12-16T05:23:51.631Z,15.13
2018-12-16T05:26:18.977Z,14.43
2018-12-16T05:28:46.330Z,15.03
2018-12-16T05:31:13.951Z,15.08
2018-12-16T05:33:41.385Z,15.83
2018-12-16T05:36:08.920Z,15.18
2018-12-16T05:38:36.297Z,16.23
2018-12-16T05:41:03.619Z,14.60
2018-12-16T05:43:30.975Z,15.65
2018-12-16T05:45:58.345Z,16.50
2018-12-16T05:48:25.701Z,15.60
2018-12-16T05:50:53.032Z,15.85
2018-12-16T05:53:20.396Z,15.03
2018-12-16T05:55:47.758Z,14.73
2018-12-16T05:58:15.098Z,14.53
2018-12-16T06:00:42.578Z,15.88
2018-12-16T06:03:09.906Z,16.17
2018-12-16T06:05:37.293Z,16.25
2018-12-16T06:08:04.646Z,16.05
2018-12-16T06:10:31.975Z,15.20
2018-12-16T06:12:59.613Z,16.65
2018-12-16T06:15:27.000Z,16.25
2018-12-16T06:17:54.345Z,15.63
2018-12-16T06:20:21.752Z,14.90
2018-12-16T06:22:49.163Z,15.38
2018-12-16T06:25:16.515Z,15.78
2018-12-16T06:27:43.869Z,15.88
2018-12-16T06:30:11.683Z,16.23
2018-12-16T06:32:39.097Z,15.65
2018-12-16T06:35:06.439Z,16.25
2018-12-16T06:37:33.795Z,14.85
2018-12-16T06:40:01.170Z,15.32
2018-12-16T06:42:28.552Z,15.40
2018-12-16T06:44:55.974Z,16.55
2018-12-16T06:47:23.323Z,15.98
2018-12-16T06:49:50.684Z,14.53
2018-12-16T06:52:18.030Z,15.08
2018-12-16T06:54:45.433Z,16.37
2018-12-16T06:57:12.847Z,16.07
2018-12-16T06:59:40.194Z,17.90
2018-12-16T07:02:07.581Z,15.72
2018-12-16T07:04:34.911Z,16.27
2018-12-16T07:07:02.280Z,15.43
2018-12-16T07:09:29.692Z,17.02
2018-12-16T07:11:57.076Z,18.17
2018-12-16T07:14:24.439Z,20.10
2018-12-16T07:16:51.782Z,19.70
2018-12-16T07:19:19.150Z,18.42
2018-12-16T07:21:46.537Z,18.62
2018-12-16T07:24:14.045Z,18.75
2018-12-16T07:26:41.436Z,17.80
2018-12-16T07:29:08.877Z,17.77
2018-12-16T07:31:36.239Z,20.35
2018-12-16T07:34:03.600Z,21.65
2018-12-16T07:36:31.169Z,22.10
2018-12-16T07:38:58.590Z,22.40
2018-12-16T07:41:26.235Z,36.70
2018-12-16T07:45:17.953Z,26.50
2018-12-16T07:47:46.340Z,24.95
2018-12-16T07:50:13.941Z,23.90
2018-12-16T07:52:41.348Z,23.90
2018-12-16T07:55:08.846Z,23.10
2018-12-16T07:57:36.240Z,24.90
2018-12-16T08:00:04.758Z,23.10
2018-12-16T08:02:36.056Z,23.52
2018-12-16T08:05:03.638Z,22.80
2018-12-16T08:07:31.052Z,21.07
2018-12-16T08:09:58.822Z,24.90
2018-12-16T08:12:26.187Z,21.50
2018-12-16T08:14:53.633Z,20.45
2018-12-16T08:17:20.976Z,19.62
2018-12-16T08:19:48.303Z,20.90
2018-12-16T08:22:16.043Z,21.35
2018-12-16T08:24:43.458Z,21.20
2018-12-16T08:27:11.065Z,19.87
2018-12-16T08:29:38.582Z,19.32
2018-12-16T08:32:06.030Z,19.85
2018-12-16T08:34:33.388Z,22.98
2018-12-16T08:37:00.736Z,22.80
2018-12-16T08:39:28.076Z,23.50
2018-12-16T08:41:55.432Z,23.87
2018-12-16T08:44:22.799Z,29.32
2018-12-16T08:46:50.146Z,24.20
2018-12-16T08:49:17.862Z,22.97
2018-12-16T08:51:45.288Z,22.93
2018-12-16T08:54:12.738Z,22.98
2018-12-16T08:56:40.186Z,19.62
2018-12-16T08:59:07.560Z,20.57
2018-12-16T09:01:35.005Z,22.70
2018-12-16T09:04:02.355Z,21.90
2018-12-16T09:06:29.719Z,21.10
2018-12-16T09:08:57.316Z,19.65
2018-12-16T09:11:24.743Z,21.65
2018-12-16T09:13:52.170Z,22.42
2018-12-16T09:16:19.537Z,21.27
2018-12-16T09:18:46.975Z,22.37
2018-12-16T09:21:14.373Z,21.00
2018-12-16T09:23:41.806Z,21.68
2018-12-16T09:26:11.155Z,21.07
2018-12-16T09:28:38.668Z,20.35
2018-12-16T09:31:06.008Z,21.12
2018-12-16T09:33:33.388Z,19.60
2018-12-16T09:36:01.094Z,21.35
2018-12-16T09:38:28.479Z,19.55
2018-12-16T09:40:55.981Z,20.60
2018-12-16T09:43:23.409Z,20.75
2018-12-16T09:45:50.752Z,17.27
2018-12-16T09:48:18.163Z,19.47
2018-12-16T09:50:45.510Z,20.97
2018-12-16T09:53:12.916Z,20.52
2018-12-16T09:55:40.296Z,19.73
2018-12-16T09:58:07.737Z,18.85
2018-12-16T10:00:35.303Z,18.12
2018-12-16T10:03:02.692Z,17.60
2018-12-16T10:05:30.207Z,19.17
2018-12-16T10:07:57.551Z,17.57
2018-12-16T10:10:25.032Z,17.80
2018-12-16T10:12:52.370Z,18.40
2018-12-16T10:15:19.748Z,17.48
2018-12-16T10:17:47.167Z,20.72
2018-12-16T10:20:14.555Z,19.55
2018-12-16T10:22:41.980Z,18.40
2018-12-16T10:25:09.371Z,18.73
2018-12-16T10:27:36.807Z,19.60
2018-12-16T10:30:04.975Z,19.37
2018-12-16T10:32:32.628Z,19.32
2018-12-16T10:35:00.091Z,19.90
2018-12-16T10:37:27.782Z,20.97
2018-12-16T10:39:55.214Z,21.10
2018-12-16T10:42:23.151Z,17.90
2018-12-16T10:44:50.843Z,18.52
2018-12-16T10:47:18.416Z,21.00
2018-12-16T10:49:45.814Z,20.95
2018-12-16T10:52:13.203Z,19.10
2018-12-16T10:54:40.570Z,19.05
2018-12-16T10:57:07.897Z,18.98
2018-12-16T10:59:35.258Z,17.98
2018-12-16T11:02:02.637Z,20.62
2018-12-16T11:04:29.959Z,18.43
2018-12-16T11:06:57.441Z,17.40
2018-12-16T11:09:24.866Z,17.40
2018-12-16T11:11:52.384Z,17.70
2018-12-16T11:14:19.745Z,23.60
2018-12-16T11:16:47.194Z,24.80
2018-12-16T11:19:14.621Z,20.92
2018-12-16T11:21:42.161Z,19.53
2018-12-16T11:24:09.552Z,23.30
2018-12-16T11:26:36.918Z,20.60
2018-12-16T11:29:04.313Z,21.27
2018-12-16T11:31:31.705Z,19.32
2018-12-16T11:33:59.062Z,18.13
2018-12-16T11:36:26.542Z,18.73
2018-12-16T11:38:54.047Z,18.53
2018-12-16T11:41:21.466Z,18.80
2018-12-16T11:43:49.326Z,18.77
2018-12-16T11:46:16.768Z,19.87
2018-12-16T11:48:44.097Z,20.93
2018-12-16T11:51:11.472Z,21.20
2018-12-16T11:53:38.840Z,19.23
2018-12-16T11:56:06.179Z,19.67
2018-12-16T11:58:33.586Z,21.87
2018-12-16T12:01:01.096Z,20.25
2018-12-16T12:03:29.367Z,24.15
2018-12-16T12:05:56.801Z,19.90
2018-12-16T12:08:24.173Z,20.27
2018-12-16T12:10:51.582Z,16.73
2018-12-16T12:13:18.988Z,17.73
2018-12-16T12:15:46.367Z,18.30
2018-12-16T12:18:13.736Z,19.37
2018-12-16T12:20:41.196Z,19.55
2018-12-16T12:23:08.618Z,17.57
2018-12-16T12:25:35.967Z,18.80
2018-12-16T12:28:03.368Z,19.02
2018-12-16T12:30:30.778Z,17.80
2018-12-16T12:32:58.155Z,19.42
2018-12-16T12:35:25.503Z,18.70
2018-12-16T12:37:52.850Z,17.45
2018-12-16T12:40:20.216Z,18.62
2018-12-16T12:42:47.577Z,18.67
2018-12-16T12:45:15.017Z,23.20
2018-12-16T12:47:42.366Z,21.17
2018-12-16T12:50:09.784Z,19.37
2018-12-16T12:52:37.157Z,20.52
2018-12-16T12:55:04.675Z,21.80
2018-12-16T12:57:32.099Z,18.80
2018-12-16T12:59:59.452Z,19.57
2018-12-16T13:02:26.814Z,18.30
2018-12-16T13:04:54.152Z,19.03
2018-12-16T13:07:21.523Z,19.60
2018-12-16T13:09:49.078Z,19.67
2018-12-16T13:12:16.430Z,20.90
2018-12-16T13:14:43.810Z,21.20
2018-12-16T13:17:11.162Z,20.67
2018-12-16T13:19:38.506Z,22.30
2018-12-16T13:22:05.992Z,21.33
2018-12-16T13:24:33.519Z,20.60
2018-12-16T13:27:01.103Z,19.70
2018-12-16T13:29:28.520Z,19.90
2018-12-16T13:31:55.922Z,23.57
2018-12-16T13:34:23.323Z,19.17
2018-12-16T13:36:50.739Z,18.50
2018-12-16T13:39:18.142Z,20.25
2018-12-16T13:41:45.536Z,19.47
2018-12-16T13:44:12.971Z,23.00
2018-12-16T13:46:40.334Z,20.77
2018-12-16T13:49:07.701Z,20.80
2018-12-16T13:51:35.035Z,22.10
2018-12-16T13:54:02.410Z,23.20
2018-12-16T13:56:29.739Z,22.63
2018-12-16T13:58:57.127Z,21.27
2018-12-16T14:01:24.545Z,22.47
2018-12-16T14:03:51.910Z,21.80
2018-12-16T14:06:19.258Z,22.47
2018-12-16T14:08:46.677Z,22.90
2018-12-16T14:11:14.028Z,20.27
2018-12-16T14:13:41.444Z,21.40
2018-12-16T14:16:08.880Z,20.73
2018-12-16T14:18:36.544Z,20.27
2018-12-16T14:21:04.348Z,19.70
2018-12-16T14:23:31.787Z,21.23
2018-12-16T14:25:59.123Z,20.33
2018-12-16T14:28:26.477Z,21.40
2018-12-16T14:30:53.820Z,21.83
2018-12-16T14:33:21.616Z,21.23
2018-12-16T14:35:48.966Z,22.13
2018-12-16T14:38:16.456Z,21.37
2018-12-16T14:40:43.859Z,20.90
2018-12-16T14:43:11.215Z,24.30
2018-12-16T14:45:38.996Z,21.60
2018-12-16T14:48:06.454Z,25.15
2018-12-16T14:50:33.783Z,30.00
2018-12-16T14:53:01.176Z,27.35
2018-12-16T14:55:28.501Z,21.80
2018-12-16T14:57:55.860Z,26.95
2018-12-16T15:00:23.224Z,23.38
2018-12-16T15:02:50.550Z,21.40
2018-12-16T15:05:17.942Z,24.63
2018-12-16T15:07:45.374Z,23.32
2018-12-16T15:10:12.834Z,24.45
2018-12-16T15:12:40.203Z,23.07
2018-12-16T15:15:08.119Z,23.47
2018-12-16T15:17:42.559Z,21.62
2018-12-16T15:20:05.904Z,22.45
2018-12-16T15:22:33.337Z,21.87
2018-12-16T15:25:00.757Z,23.00
2018-12-16T15:27:28.118Z,25.50
2018-12-16T15:29:55.822Z,27.17
2018-12-16T15:32:24.000Z,27.55
2018-12-16T15:34:51.408Z,21.77
2018-12-16T15:37:18.782Z,21.57
2018-12-16T15:39:46.211Z,22.27
2018-12-16T15:42:13.562Z,22.75
2018-12-16T15:44:40.934Z,22.35
2018-12-16T15:47:08.288Z,23.22
2018-12-16T15:49:35.690Z,20.80
2018-12-16T15:52:03.305Z,20.05
2018-12-16T15:54:30.756Z,26.33
2018-12-16T15:56:58.115Z,23.80
2018-12-16T15:59:25.501Z,23.57
2018-12-16T16:01:53.029Z,25.05
2018-12-16T16:04:21.084Z,29.15
2018-12-16T16:06:48.441Z,33.30
2018-12-16T16:09:15.825Z,30.23
2018-12-16T16:13:07.781Z,27.48
2018-12-16T16:15:35.604Z,23.07
2018-12-16T16:18:03.056Z,22.05
2018-12-16T16:20:30.624Z,25.12
2018-12-16T16:22:57.974Z,24.45
2018-12-16T16:25:25.315Z,22.27
2018-12-16T16:27:52.682Z,22.27
2018-12-16T16:30:20.068Z,22.73
2018-12-16T16:32:47.491Z,22.40
2018-12-16T16:35:14.866Z,22.35
2018-12-16T16:37:42.327Z,22.58
2018-12-16T16:40:09.815Z,23.10
2018-12-16T16:42:37.215Z,23.05
2018-12-16T16:45:05.334Z,22.10
2018-12-16T16:47:32.862Z,21.33
2018-12-16T16:50:00.204Z,21.73
2018-12-16T16:52:27.589Z,24.12
2018-12-16T16:54:55.052Z,22.00
2018-12-16T16:57:22.931Z,22.95
2018-12-16T16:59:50.414Z,21.73
2018-12-16T17:02:17.922Z,21.62
2018-12-16T17:04:46.384Z,22.85
2018-12-16T17:07:13.834Z,19.70
2018-12-16T17:09:41.285Z,21.07
2018-12-16T17:12:08.707Z,20.30
2018-12-16T17:14:36.213Z,34.53
2018-12-16T17:17:03.710Z,24.43
2018-12-16T17:19:31.162Z,22.45
2018-12-16T17:21:58.724Z,22.30
2018-12-16T17:24:26.154Z,22.67
2018-12-16T17:26:53.486Z,23.40
2018-12-16T17:29:20.850Z,29.18
2018-12-16T17:31:48.211Z,36.13
2018-12-16T17:34:15.931Z,30.20
2018-12-16T17:36:43.367Z,27.60
2018-12-16T17:39:10.794Z,26.48
2018-12-16T17:41:38.123Z,23.32
2018-12-16T17:44:05.636Z,22.77
2018-12-16T17:46:33.073Z,36.00
2018-12-16T17:49:00.396Z,37.30
2018-12-16T17:51:27.747Z,30.30
2018-12-16T17:53:55.104Z,31.90
2018-12-16T17:56:22.488Z,33.95
2018-12-16T17:58:49.816Z,33.13
2018-12-16T18:01:17.178Z,28.25
2018-12-16T18:03:44.534Z,27.55
2018-12-16T18:06:11.914Z,23.35
2018-12-16T18:08:39.332Z,23.50
2018-12-16T18:11:06.684Z,24.25
2018-12-16T18:13:34.076Z,22.98
2018-12-16T18:16:01.507Z,20.70
2018-12-16T18:18:29.216Z,21.17
2018-12-16T18:20:56.607Z,20.40
2018-12-16T18:23:29.580Z,21.73
2018-12-16T18:25:53.400Z,20.85
2018-12-16T18:28:20.730Z,20.45
2018-12-16T18:30:48.130Z,20.60
2018-12-16T18:33:15.787Z,24.63
2018-12-16T18:35:43.215Z,23.62
2018-12-16T18:38:10.567Z,23.10
2018-12-16T18:40:37.928Z,23.07
2018-12-16T18:43:05.305Z,25.35
2018-12-16T18:45:32.739Z,25.08
2018-12-16T18:48:00.088Z,23.12
2018-12-16T18:50:27.445Z,22.07
2018-12-16T18:52:54.786Z,23.25
2018-12-16T18:55:22.169Z,22.07
2018-12-16T18:57:49.546Z,24.30
2018-12-16T19:00:16.986Z,22.70
2018-12-16T19:02:44.427Z,21.77
2018-12-16T19:05:11.796Z,23.90
2018-12-16T19:07:39.103Z,22.07
2018-12-16T19:10:06.883Z,25.27
2018-12-16T19:12:34.239Z,23.87
2018-12-16T19:15:02.172Z,21.52
2018-12-16T19:17:29.595Z,23.45
2018-12-16T19:19:56.930Z,19.75
2018-12-16T19:22:24.273Z,23.67
2018-12-16T19:24:51.660Z,23.45
2018-12-16T19:27:19.111Z,24.50
2018-12-16T19:29:46.484Z,28.47
2018-12-16T19:32:14.011Z,25.65
2018-12-16T19:34:41.384Z,23.45
2018-12-16T19:37:08.732Z,23.47
2018-12-16T19:39:36.202Z,24.77
2018-12-16T19:42:03.682Z,23.75
2018-12-16T19:44:31.102Z,24.12
2018-12-16T19:46:58.586Z,24.37
2018-12-16T19:49:26.052Z,24.25
2018-12-16T19:51:53.468Z,22.42
2018-12-16T19:54:21.150Z,24.70
2018-12-16T19:56:48.607Z,23.10
2018-12-16T19:59:16.079Z,28.30
2018-12-16T20:01:43.522Z,30.50
2018-12-16T20:04:16.991Z,27.95
2018-12-16T20:06:44.470Z,31.17
2018-12-16T20:09:11.979Z,35.48
2018-12-16T20:11:39.356Z,49.25
2018-12-16T20:14:06.793Z,40.43
2018-12-16T20:16:34.270Z,38.80
2018-12-16T20:19:02.440Z,39.42
2018-12-16T20:21:29.913Z,28.20
2018-12-16T20:23:57.397Z,24.95
2018-12-16T20:26:25.090Z,26.25
2018-12-16T20:28:52.591Z,25.08
2018-12-16T20:31:20.048Z,22.55
2018-12-16T20:33:47.546Z,23.85
2018-12-16T20:36:14.996Z,26.37
2018-12-16T20:38:42.438Z,23.62
2018-12-16T20:41:09.904Z,24.05
2018-12-16T20:43:37.550Z,24.80
2018-12-16T20:46:05.006Z,23.00
2018-12-16T20:48:32.519Z,22.15
2018-12-16T20:50:59.921Z,22.37
2018-12-16T20:53:27.364Z,22.58
2018-12-16T20:55:54.743Z,25.50
2018-12-16T20:58:22.182Z,25.35
2018-12-16T21:00:49.675Z,23.55
2018-12-16T21:03:17.292Z,21.37
2018-12-16T21:05:44.669Z,23.80
2018-12-16T21:08:12.135Z,22.90
2018-12-16T21:10:39.575Z,25.85
2018-12-16T21:13:12.595Z,29.23
2018-12-16T21:15:45.342Z,30.90
2018-12-16T21:18:18.279Z,33.85
2018-12-16T21:20:45.685Z,40.52
2018-12-16T21:23:13.159Z,34.30
2018-12-16T21:25:40.935Z,27.77
2018-12-16T21:28:08.360Z,25.45
2018-12-16T21:30:35.845Z,26.25
2018-12-16T21:33:03.289Z,23.83
2018-12-16T21:35:30.748Z,26.35
2018-12-16T21:37:58.195Z,25.25
2018-12-16T21:40:25.681Z,24.37
2018-12-16T21:42:53.438Z,24.87
2018-12-16T21:45:20.965Z,24.95
2018-12-16T21:47:48.437Z,25.30
2018-12-16T21:50:15.891Z,24.52
2018-12-16T21:52:43.355Z,25.72
2018-12-16T21:55:10.823Z,23.15
2018-12-16T21:57:38.286Z,23.50
2018-12-16T22:00:07.300Z,23.15
2018-12-16T22:02:34.715Z,23.62
2018-12-16T22:05:02.177Z,24.35
2018-12-16T22:07:30.567Z,24.18
2018-12-16T22:13:28.564Z,20.68
2018-12-16T22:15:56.059Z,22.42
2018-12-16T22:18:23.451Z,21.07
2018-12-16T22:20:50.906Z,21.35
2018-12-16T22:23:18.359Z,22.32
2018-12-16T22:25:46.750Z,22.25
2018-12-16T22:28:14.204Z,20.88
2018-12-16T22:30:41.751Z,22.25
2018-12-16T22:33:09.437Z,23.20
2018-12-16T22:35:36.916Z,22.50
2018-12-16T22:38:04.352Z,21.23
2018-12-16T22:40:31.939Z,20.65
2018-12-16T22:42:59.382Z,24.90
2018-12-16T22:45:26.798Z,24.25
2018-12-16T22:47:54.162Z,26.37
2018-12-16T22:50:21.618Z,24.80
2018-12-16T22:52:49.090Z,24.40
2018-12-16T22:55:16.585Z,24.72
2018-12-16T22:57:47.046Z,22.65
2018-12-16T23:00:20.215Z,22.73
2018-12-16T23:02:47.626Z,19.75
2018-12-16T23:05:15.088Z,19.82
2018-12-16T23:07:42.540Z,20.60
2018-12-16T23:10:09.996Z,22.85
2018-12-16T23:12:37.349Z,21.33
2018-12-16T23:15:05.343Z,21.70
2018-12-16T23:17:32.775Z,22.02
2018-12-16T23:20:05.651Z,21.60
2018-12-16T23:22:33.116Z,19.62
2018-12-16T23:25:00.691Z,18.57
2018-12-16T23:27:28.145Z,19.25
2018-12-16T23:29:55.592Z,18.40
2018-12-16T23:32:23.034Z,17.82
2018-12-16T23:34:50.513Z,18.75
2018-12-16T23:37:18.068Z,18.52
2018-12-16T23:39:45.840Z,18.32
2018-12-16T23:42:13.392Z,19.80
2018-12-16T23:44:40.838Z,18.27
2018-12-16T23:47:08.301Z,20.43
2018-12-16T23:49:35.756Z,19.52
2018-12-16T23:52:03.199Z,20.37
2018-12-16T23:54:30.651Z,19.77
2018-12-16T23:56:58.030Z,18.82
2018-12-16T23:59:25.501Z,20.70
